Time;durP1;ratioP1;P1;durP2;ratioP2;P2;SDS_P1;SDS_P2;PMS_P1;PMS_P2;Temp;Humidity;BMP_temperature;BMP_pressure;BME280_temperature;BME280_humidity;BME280_pressure;Samples;Min_cycle;Max_cycle;Signal;HPM_P1;HPM_P2
2023/10/03 00:00:28;;;;;;;16.15;9.43;;;19.50;99.90;;;;;;5042313;28;20895;-42
2023/10/03 00:02:58;;;;;;;14.50;8.88;;;19.40;99.90;;;;;;5115807;27;20678;-43
2023/10/03 00:05:29;;;;;;;17.30;9.63;;;19.40;99.90;;;;;;5065970;27;20028;-43
2023/10/03 00:07:57;;;;;;;16.02;9.10;;;19.40;99.90;;;;;;5114478;27;20030;-43
2023/10/03 00:10:23;;;;;;;15.70;9.25;;;19.40;99.90;;;;;;5073411;27;20024;-42
2023/10/03 00:12:51;;;;;;;17.27;9.50;;;19.40;99.90;;;;;;5103314;27;20129;-42
2023/10/03 00:15:18;;;;;;;17.45;9.32;;;19.40;99.90;;;;;;5085943;27;20064;-44
2023/10/03 00:17:45;;;;;;;19.17;10.38;;;19.40;99.90;;;;;;5091129;27;20808;-44
2023/10/03 00:20:16;;;;;;;18.85;10.52;;;19.40;99.90;;;;;;5098537;27;20028;-44
2023/10/03 00:22:42;;;;;;;18.55;10.60;;;19.40;99.90;;;;;;5082433;27;20758;-43
2023/10/03 00:25:11;;;;;;;17.92;10.55;;;19.40;99.90;;;;;;5106168;27;20075;-44
2023/10/03 00:27:45;;;;;;;17.67;10.55;;;19.50;99.90;;;;;;5071095;27;20020;-44
2023/10/03 00:30:14;;;;;;;18.67;10.05;;;19.50;99.90;;;;;;5149289;27;20058;-42
2023/10/03 00:32:48;;;;;;;17.88;10.93;;;19.50;99.90;;;;;;5160861;27;20057;-43
2023/10/03 00:35:15;;;;;;;17.30;9.93;;;19.60;99.90;;;;;;5100401;27;20034;-42
2023/10/03 00:37:43;;;;;;;17.77;9.98;;;19.60;99.90;;;;;;5159499;27;20021;-44
2023/10/03 00:42:48;;;;;;;18.38;9.77;;;19.60;99.90;;;;;;5159429;27;20034;-42
2023/10/03 00:45:21;;;;;;;18.45;10.25;;;19.60;99.90;;;;;;5107391;27;20477;-44
2023/10/03 00:47:51;;;;;;;18.63;10.35;;;19.70;99.90;;;;;;5162172;27;20082;-43
2023/10/03 00:50:20;;;;;;;17.95;10.27;;;19.70;99.90;;;;;;5117162;27;20059;-43
2023/10/03 00:53:05;;;;;;;15.93;9.70;;;19.70;99.90;;;;;;5060873;27;20387;-43
2023/10/03 00:55:32;;;;;;;17.65;10.05;;;19.70;99.90;;;;;;5117590;27;20036;-43
2023/10/03 01:00:43;;;;;;;20.70;11.32;;;19.70;99.90;;;;;;5105309;27;20572;-43
2023/10/03 01:03:28;;;;;;;19.20;10.50;;;19.60;99.90;;;;;;5165101;27;20079;-43
2023/10/03 01:05:58;;;;;;;20.42;11.13;;;19.60;99.90;;;;;;5106915;27;20474;-43
2023/10/03 01:08:23;;;;;;;19.95;10.77;;;19.50;99.90;;;;;;5164373;27;20652;-43
2023/10/03 01:10:51;;;;;;;17.40;10.48;;;19.50;99.90;;;;;;5103532;27;20054;-43
2023/10/03 01:13:19;;;;;;;18.35;10.77;;;19.50;99.90;;;;;;5165729;27;20436;-43
2023/10/03 01:15:49;;;;;;;19.17;10.55;;;19.50;99.90;;;;;;5100323;27;20071;-43
2023/10/03 01:18:18;;;;;;;19.52;10.80;;;19.40;99.90;;;;;;5166775;27;20078;-43
2023/10/03 01:20:48;;;;;;;18.63;10.40;;;19.40;99.90;;;;;;5099560;27;20032;-43
2023/10/03 01:23:16;;;;;;;21.00;11.38;;;19.40;99.90;;;;;;5166675;27;20773;-43
2023/10/03 01:25:43;;;;;;;19.70;10.77;;;19.40;99.90;;;;;;5106049;27;20096;-43
2023/10/03 01:28:12;;;;;;;18.42;11.55;;;19.40;99.90;;;;;;5161036;27;20124;-43
2023/10/03 01:30:40;;;;;;;18.88;10.73;;;19.30;99.90;;;;;;5105312;27;20025;-43
2023/10/03 01:33:10;;;;;;;19.42;11.25;;;19.40;99.90;;;;;;5162900;27;20067;-43
2023/10/03 01:35:35;;;;;;;18.40;10.07;;;19.40;99.90;;;;;;5124763;27;20039;-42
2023/10/03 01:38:01;;;;;;;19.58;11.07;;;19.30;99.90;;;;;;5141303;27;20030;-45
2023/10/03 01:40:27;;;;;;;20.17;11.00;;;19.30;99.90;;;;;;5138536;27;20020;-42
2023/10/03 01:42:56;;;;;;;20.80;11.40;;;19.30;99.90;;;;;;5128187;27;20746;-42
2023/10/03 01:45:24;;;;;;;20.42;11.45;;;19.30;99.90;;;;;;5149858;27;20026;-42
2023/10/03 01:47:50;;;;;;;18.70;10.32;;;19.20;99.90;;;;;;5117830;27;20033;-42
2023/10/03 01:50:20;;;;;;;18.77;10.63;;;19.30;99.90;;;;;;5157858;27;20018;-42
2023/10/03 01:52:49;;;;;;;19.63;10.80;;;19.20;99.90;;;;;;5096960;27;20030;-42
2023/10/03 01:55:17;;;;;;;20.88;11.48;;;19.20;99.90;;;;;;5157045;27;20040;-43
2023/10/03 01:57:44;;;;;;;19.80;10.60;;;19.10;99.90;;;;;;5107272;27;20053;-43
2023/10/03 02:00:24;;;;;;;20.83;11.13;;;19.10;99.90;;;;;;5161667;27;20102;-43
2023/10/03 02:02:57;;;;;;;19.67;10.85;;;19.10;99.90;;;;;;5117113;27;20025;-43
2023/10/03 02:05:25;;;;;;;21.30;11.50;;;19.10;99.90;;;;;;5067283;27;20048;-43
2023/10/03 02:08:07;;;;;;;18.00;10.48;;;19.10;99.90;;;;;;5116364;27;20017;-43
2023/10/03 02:10:36;;;;;;;;;;;19.10;99.90;;;;;;5067818;27;20016;-42
2023/10/03 02:13:09;;;;;;;18.98;9.73;;;19.10;99.90;;;;;;5115909;27;19912;-43
2023/10/03 02:15:36;;;;;;;20.75;10.77;;;19.10;99.90;;;;;;5063747;27;20037;-43
2023/10/03 02:18:10;;;;;;;18.77;10.30;;;19.20;99.90;;;;;;5103337;27;20030;-43
2023/10/03 02:21:02;;;;;;;20.02;10.55;;;19.10;99.90;;;;;;5169868;27;20030;-43
2023/10/03 02:23:29;;;;;;;16.50;9.63;;;19.20;99.90;;;;;;5120483;27;20126;-43
2023/10/03 02:26:05;;;;;;;21.83;12.35;;;19.20;99.90;;;;;;5064946;27;20017;-42
2023/10/03 02:28:31;;;;;;;21.05;11.52;;;19.20;99.90;;;;;;5123360;27;20028;-43
2023/10/03 02:30:57;;;;;;;19.85;11.43;;;19.30;99.90;;;;;;5127276;27;20022;-47
2023/10/03 02:33:23;;;;;;;19.45;10.70;;;19.30;99.90;;;;;;5102844;27;20057;-43
2023/10/03 02:35:50;;;;;;;18.55;10.32;;;19.30;99.90;;;;;;5170241;27;20038;-43
2023/10/03 02:38:29;;;;;;;20.20;10.43;;;19.40;99.90;;;;;;5101986;27;20052;-42
2023/10/03 02:40:56;;;;;;;17.83;9.93;;;19.40;99.90;;;;;;5170430;27;20030;-43
2023/10/03 02:43:23;;;;;;;18.38;9.75;;;19.40;99.90;;;;;;5104837;27;20084;-42
2023/10/03 02:45:48;;;;;;;21.25;11.27;;;19.40;99.90;;;;;;5168093;27;20501;-42
2023/10/03 02:48:14;;;;;;;17.33;10.20;;;19.40;99.90;;;;;;5117451;27;20085;-43
2023/10/03 02:50:52;;;;;;;17.70;10.07;;;19.50;99.90;;;;;;5155778;27;20094;-42
2023/10/03 02:53:21;;;;;;;16.95;9.80;;;19.40;99.90;;;;;;5122659;27;20049;-43
2023/10/03 02:55:48;;;;;;;19.77;10.40;;;19.40;99.90;;;;;;5152778;27;20106;-43
2023/10/03 02:58:14;;;;;;;19.25;10.30;;;19.40;99.90;;;;;;5131284;27;20025;-42
2023/10/03 03:00:46;;;;;;;22.00;10.85;;;19.40;99.90;;;;;;5140490;27;20095;-43
2023/10/03 03:03:12;;;;;;;19.02;10.70;;;19.40;99.90;;;;;;5142225;27;20024;-43
2023/10/03 03:05:38;;;;;;;19.60;10.88;;;19.40;99.90;;;;;;5130587;27;20041;-43
2023/10/03 03:08:28;;;;;;;18.10;10.70;;;19.40;99.90;;;;;;5154946;27;20022;-42
2023/10/03 03:11:00;;;;;;;19.58;11.32;;;19.30;99.90;;;;;;5135023;27;20027;-43
2023/10/03 03:13:36;;;;;;;18.30;9.80;;;19.40;99.90;;;;;;5146337;27;20033;-43
2023/10/03 03:16:03;;;;;;;18.83;10.73;;;19.30;99.90;;;;;;5132556;27;20038;-43
2023/10/03 03:18:31;;;;;;;20.70;11.43;;;19.30;99.90;;;;;;5151934;27;20094;-43
2023/10/03 03:20:58;;;;;;;22.15;12.50;;;19.30;99.90;;;;;;5053012;27;20025;-43
2023/10/03 03:23:35;;;;;;;21.27;12.07;;;19.40;99.90;;;;;;5055586;27;20143;-43
2023/10/03 03:26:18;;;;;;;21.88;12.23;;;19.40;99.90;;;;;;5104959;27;20028;-42
2023/10/03 03:28:45;;;;;;;17.98;10.70;;;19.30;99.90;;;;;;5156531;27;20029;-42
2023/10/03 03:31:22;;;;;;;18.42;10.68;;;19.40;99.90;;;;;;5132605;27;20033;-42
2023/10/03 03:33:52;;;;;;;18.75;10.88;;;19.40;99.90;;;;;;5159538;27;20393;-42
2023/10/03 03:36:22;;;;;;;18.20;10.23;;;19.40;99.90;;;;;;5114426;27;20069;-43
2023/10/03 03:38:51;;;;;;;18.17;10.45;;;19.40;99.90;;;;;;5161407;27;20042;-42
2023/10/03 03:41:18;;;;;;;17.00;9.93;;;19.40;99.90;;;;;;5108089;27;20026;-43
2023/10/03 03:43:44;;;;;;;19.98;10.57;;;19.40;99.90;;;;;;5161649;27;20503;-42
2023/10/03 03:46:10;;;;;;;15.73;9.20;;;19.40;99.90;;;;;;5108588;27;20125;-43
2023/10/03 03:48:38;;;;;;;18.40;10.18;;;19.40;99.90;;;;;;5168424;27;20050;-43
2023/10/03 03:51:11;;;;;;;17.30;10.02;;;19.40;99.90;;;;;;5101990;27;20429;-43
2023/10/03 03:53:38;;;;;;;18.48;9.68;;;19.40;99.90;;;;;;5169051;27;20110;-43
2023/10/03 03:56:12;;;;;;;19.98;9.98;;;19.40;99.90;;;;;;5100031;27;20059;-43
2023/10/03 03:58:40;;;;;;;17.85;10.00;;;19.40;99.90;;;;;;5168547;27;20022;-43
2023/10/03 04:01:16;;;;;;;17.90;9.40;;;19.40;99.90;;;;;;5100331;27;20395;-43
2023/10/03 04:03:54;;;;;;;19.75;9.98;;;19.40;99.90;;;;;;5168632;27;20030;-43
2023/10/03 04:06:23;;;;;;;17.92;10.55;;;19.40;99.90;;;;;;5100692;27;20084;-43
2023/10/03 04:08:49;;;;;;;19.33;10.13;;;19.40;99.90;;;;;;5167882;27;20050;-43
2023/10/03 04:11:15;;;;;;;18.05;10.10;;;19.40;99.90;;;;;;5104230;27;20475;-43
2023/10/03 04:13:49;;;;;;;17.35;9.80;;;19.40;99.90;;;;;;5164336;27;20025;-42
2023/10/03 04:16:21;;;;;;;18.95;10.00;;;19.40;99.90;;;;;;5110881;27;20075;-44
2023/10/03 04:18:50;;;;;;;18.02;10.50;;;19.40;99.90;;;;;;5161876;27;20109;-43
2023/10/03 04:21:16;;;;;;;19.05;10.02;;;19.40;99.90;;;;;;5118872;27;20025;-43
2023/10/03 04:23:44;;;;;;;17.88;9.10;;;19.40;99.90;;;;;;5149200;27;20520;-43
2023/10/03 04:26:10;;;;;;;15.98;9.75;;;19.50;99.90;;;;;;5131378;27;20032;-43
2023/10/03 04:28:38;;;;;;;17.13;9.35;;;19.40;99.90;;;;;;5138461;27;20022;-43
2023/10/03 04:31:04;;;;;;;15.05;8.55;;;19.50;99.90;;;;;;5128716;27;20026;-43
2023/10/03 04:33:30;;;;;;;18.38;8.88;;;19.50;99.90;;;;;;5103403;27;20055;-43
2023/10/03 04:35:56;;;;;;;16.23;9.48;;;19.50;99.90;;;;;;5072009;27;20792;-43
2023/10/03 04:38:22;;;;;;;16.55;9.02;;;19.50;99.90;;;;;;5115215;27;20036;-43
2023/10/03 04:40:48;;;;;;;17.65;8.65;;;19.50;99.90;;;;;;5069168;27;20018;-43
2023/10/03 04:43:14;;;;;;;15.63;8.55;;;19.60;99.90;;;;;;5119991;27;20028;-44
2023/10/03 04:45:41;;;;;;;13.20;7.80;;;19.60;99.90;;;;;;5065932;27;20036;-43
2023/10/03 04:48:07;;;;;;;14.98;8.52;;;19.60;99.90;;;;;;5122382;27;20124;-43
2023/10/03 04:50:35;;;;;;;14.48;7.72;;;19.70;99.90;;;;;;5061047;28;20028;-43
2023/10/03 04:53:14;;;;;;;11.45;6.75;;;19.70;99.90;;;;;;5127182;27;20102;-43
2023/10/03 04:55:40;;;;;;;9.68;5.55;;;19.70;99.90;;;;;;5061915;28;20487;-43
2023/10/03 04:58:05;;;;;;;11.00;5.43;;;19.60;99.90;;;;;;5126309;27;20026;-43
2023/10/03 05:00:31;;;;;;;9.48;4.97;;;19.60;99.90;;;;;;5061526;28;20028;-43
2023/10/03 05:02:57;;;;;;;7.78;4.30;;;19.60;99.90;;;;;;5123203;27;20023;-43
2023/10/03 05:05:26;;;;;;;11.35;5.07;;;19.60;99.90;;;;;;5065654;27;20035;-43
2023/10/03 05:07:54;;;;;;;8.60;5.00;;;19.60;99.90;;;;;;5112460;27;20014;-43
2023/10/03 05:10:20;;;;;;;7.97;4.25;;;19.60;99.90;;;;;;5075296;27;20055;-43
2023/10/03 05:12:47;;;;;;;12.40;4.22;;;19.60;99.90;;;;;;5099666;27;20113;-43
2023/10/03 05:15:16;;;;;;;6.15;4.13;;;19.60;99.90;;;;;;5087209;27;20542;-43
2023/10/03 05:17:46;;;;;;;5.90;3.70;;;19.60;99.90;;;;;;5089931;27;20018;-43
2023/10/03 05:20:13;;;;;;;7.18;3.78;;;19.60;99.90;;;;;;5095466;27;20021;-42
2023/10/03 05:22:40;;;;;;;8.48;4.45;;;19.60;99.90;;;;;;5092157;27;20029;-43
2023/10/03 05:25:13;;;;;;;5.28;3.75;;;19.60;99.90;;;;;;5120166;27;20029;-43
2023/10/03 05:27:43;;;;;;;10.10;4.50;;;19.60;99.90;;;;;;5155148;27;20095;-43
2023/10/03 05:30:14;;;;;;;6.07;3.60;;;19.50;99.90;;;;;;5093459;27;20031;-43
2023/10/03 05:32:42;;;;;;;5.68;3.55;;;19.50;99.90;;;;;;5066781;27;20037;-42
2023/10/03 05:35:08;;;;;;;6.95;3.80;;;19.40;99.90;;;;;;5118629;27;20029;-42
2023/10/03 05:37:35;;;;;;;6.78;3.92;;;19.40;99.90;;;;;;5067287;27;20028;-43
2023/10/03 05:40:23;;;;;;;6.53;4.00;;;19.40;99.90;;;;;;5118035;27;20023;-42
2023/10/03 05:42:47;;;;;;;7.57;3.90;;;19.30;99.90;;;;;;5067179;27;20025;-42
2023/10/03 05:45:14;;;;;;;6.53;3.05;;;19.40;99.90;;;;;;5118137;27;20071;-42
2023/10/03 05:47:48;;;;;;;5.32;3.63;;;19.40;99.90;;;;;;5060719;27;20024;-43
2023/10/03 05:50:22;;;;;;;5.40;3.00;;;19.40;99.90;;;;;;5114475;27;20790;-42
2023/10/03 05:52:48;;;;;;;6.00;3.65;;;19.40;99.90;;;;;;5061713;27;20025;-43
2023/10/03 05:55:14;;;;;;;6.18;3.70;;;19.50;99.90;;;;;;5124556;27;20116;-42
2023/10/03 05:57:42;;;;;;;8.30;3.67;;;19.50;99.90;;;;;;5060758;28;20028;-43
2023/10/03 06:00:18;;;;;;;7.32;3.80;;;19.50;99.90;;;;;;5125435;27;20070;-43
2023/10/03 06:02:47;;;;;;;6.57;3.92;;;19.50;99.90;;;;;;5060065;28;20100;-43
2023/10/03 06:05:13;;;;;;;5.28;3.33;;;19.50;99.90;;;;;;5125646;27;20023;-43
2023/10/03 06:07:41;;;;;;;5.20;3.15;;;19.50;99.90;;;;;;5060468;27;20111;-43
2023/10/03 06:10:10;;;;;;;4.93;3.20;;;19.50;99.90;;;;;;5116990;27;20045;-44
2023/10/03 06:12:36;;;;;;;5.20;3.95;;;19.50;99.90;;;;;;5064780;27;20025;-43
2023/10/03 06:15:04;;;;;;;6.85;3.50;;;19.50;99.90;;;;;;5105717;27;20054;-43
2023/10/03 06:17:31;;;;;;;8.45;4.15;;;19.50;99.90;;;;;;5077551;27;20021;-43
2023/10/03 06:19:59;;;;;;;6.18;3.83;;;19.50;99.90;;;;;;5094747;27;20452;-42
2023/10/03 06:22:25;;;;;;;6.38;3.25;;;19.50;99.90;;;;;;5087206;27;20024;-43
2023/10/03 06:24:53;;;;;;;6.88;3.72;;;19.50;99.90;;;;;;5082612;27;20010;-42
2023/10/03 06:27:18;;;;;;;5.82;3.75;;;19.50;99.90;;;;;;5099908;27;20032;-43
2023/10/03 06:29:44;;;;;;;4.85;3.33;;;19.50;99.90;;;;;;5069867;27;20424;-43
2023/10/03 06:32:10;;;;;;;4.72;3.45;;;19.50;99.90;;;;;;5061840;27;20460;-43
2023/10/03 06:34:38;;;;;;;7.60;4.00;;;19.50;99.90;;;;;;5083020;27;20052;-43
2023/10/03 06:37:04;;;;;;;4.45;3.63;;;19.50;99.90;;;;;;5103996;27;20021;-45
2023/10/03 06:39:30;;;;;;;4.75;3.25;;;19.50;99.90;;;;;;5159487;27;20027;-43
2023/10/03 06:41:56;;;;;;;4.72;3.28;;;19.60;99.90;;;;;;5104549;27;20019;-43
2023/10/03 06:44:25;;;;;;;5.68;3.83;;;19.60;99.90;;;;;;5163386;27;20101;-43
2023/10/03 06:46:50;;;;;;;6.70;4.07;;;19.60;99.90;;;;;;5097618;27;20032;-42
2023/10/03 06:49:22;;;;;;;5.00;3.85;;;19.60;99.90;;;;;;5163718;27;20516;-42
2023/10/03 06:51:50;;;;;;;7.00;3.92;;;19.60;99.90;;;;;;5097227;27;20933;-43
2023/10/03 06:54:16;;;;;;;5.57;3.53;;;19.60;99.90;;;;;;5164540;27;20507;-43
2023/10/03 06:56:42;;;;;;;6.93;3.92;;;19.60;99.90;;;;;;5106103;27;20036;-43
2023/10/03 06:59:14;;;;;;;6.18;3.80;;;19.60;99.90;;;;;;5157667;27;20021;-43
2023/10/03 07:01:40;;;;;;;6.88;3.95;;;19.70;99.90;;;;;;5115899;27;20475;-43
2023/10/03 07:04:06;;;;;;;7.68;4.05;;;19.70;99.90;;;;;;5152810;27;20389;-42
2023/10/03 07:06:33;;;;;;;7.13;3.58;;;19.70;99.90;;;;;;5131532;27;20017;-43
2023/10/03 07:09:00;;;;;;;5.97;3.78;;;19.80;99.90;;;;;;5141890;27;20362;-42
2023/10/03 07:11:26;;;;;;;5.57;3.53;;;19.80;99.90;;;;;;5142741;27;20016;-42
2023/10/03 07:13:51;;;;;;;6.18;3.78;;;19.90;99.90;;;;;;5128361;27;20026;-42
2023/10/03 07:16:18;;;;;;;6.13;4.13;;;19.90;99.90;;;;;;5156585;27;20038;-43
2023/10/03 07:18:47;;;;;;;4.75;3.35;;;20.00;99.90;;;;;;5114814;27;20037;-43
2023/10/03 07:21:15;;;;;;;5.88;3.70;;;20.00;99.90;;;;;;5161128;27;20052;-43
2023/10/03 07:23:41;;;;;;;6.20;3.30;;;20.00;99.90;;;;;;5109538;27;20097;-43
2023/10/03 07:26:07;;;;;;;6.93;3.75;;;19.90;99.90;;;;;;5160702;27;20718;-43
2023/10/03 07:28:38;;;;;;;7.75;4.47;;;19.90;99.90;;;;;;5108714;27;20521;-43
2023/10/03 07:31:13;;;;;;;7.30;4.53;;;19.80;99.90;;;;;;5117933;27;20085;-43
2023/10/03 07:33:44;;;;;;;13.48;5.32;;;19.70;99.90;;;;;;5106767;27;20042;-43
2023/10/03 07:36:10;;;;;;;6.47;4.32;;;19.50;99.90;;;;;;5168888;27;20034;-43
2023/10/03 07:38:36;;;;;;;5.53;4.20;;;19.40;99.90;;;;;;5101816;27;20044;-43
2023/10/03 07:41:09;;;;;;;7.95;4.18;;;19.20;99.90;;;;;;5168126;27;20026;-44
2023/10/03 07:43:34;;;;;;;6.93;4.22;;;19.10;99.90;;;;;;5102112;27;20021;-42
2023/10/03 07:46:00;;;;;;;7.25;5.10;;;19.00;99.90;;;;;;5168571;27;20083;-43
2023/10/03 07:48:35;;;;;;;9.82;4.97;;;19.00;99.90;;;;;;5108011;27;20032;-43
2023/10/03 07:51:05;;;;;;;10.60;4.53;;;19.00;99.90;;;;;;5042267;28;20025;-44
2023/10/03 07:53:31;;;;;;;6.78;4.18;;;18.90;99.90;;;;;;5112443;27;20030;-44
2023/10/03 07:55:57;;;;;;;6.13;4.10;;;19.00;99.90;;;;;;5072399;27;20794;-43
2023/10/03 07:58:22;;;;;;;6.95;3.97;;;19.00;99.90;;;;;;5104246;27;20578;-43
2023/10/03 08:00:50;;;;;;;4.97;3.75;;;19.10;99.90;;;;;;5086024;27;20028;-43
2023/10/03 08:03:15;;;;;;;4.53;3.55;;;19.10;99.90;;;;;;5091538;27;20690;-44
2023/10/03 08:05:41;;;;;;;5.13;3.80;;;19.10;99.90;;;;;;5099201;27;20046;-43
2023/10/03 08:08:07;;;;;;;8.23;3.67;;;19.10;99.90;;;;;;5077221;27;20436;-43
2023/10/03 08:10:33;;;;;;;5.35;3.40;;;19.10;99.90;;;;;;5111998;27;20479;-44
2023/10/03 08:12:59;;;;;;;5.97;2.92;;;19.00;99.90;;;;;;5068921;27;20043;-43
2023/10/03 08:15:31;;;;;;;4.40;2.72;;;19.00;99.90;;;;;;5120589;27;20052;-43
2023/10/03 08:18:00;;;;;;;2.90;2.42;;;19.00;99.90;;;;;;5069642;27;20032;-43
2023/10/03 08:20:27;;;;;;;4.18;2.53;;;19.00;99.90;;;;;;5121636;27;20029;-44
2023/10/03 08:22:53;;;;;;;4.82;2.20;;;19.00;99.90;;;;;;5065099;27;20052;-43
2023/10/03 08:25:21;;;;;;;3.50;2.25;;;19.10;99.90;;;;;;5124759;27;20557;-43
2023/10/03 08:27:51;;;;;;;4.53;2.13;;;19.10;99.90;;;;;;5062088;28;20029;-44
2023/10/03 08:30:29;;;;;;;4.97;2.55;;;19.10;99.90;;;;;;5140458;27;20084;-44
2023/10/03 08:33:06;;;;;;;3.47;1.90;;;19.10;99.90;;;;;;5167810;27;20050;-44
2023/10/03 08:35:35;;;;;;;5.45;1.80;;;19.10;99.90;;;;;;5099885;27;20023;-44
2023/10/03 08:38:04;;;;;;;4.53;1.85;;;19.10;99.90;;;;;;5166855;27;20058;-44
2023/10/03 08:40:40;;;;;;;5.25;1.73;;;19.10;99.90;;;;;;5100525;27;20042;-43
2023/10/03 08:43:11;;;;;;;4.20;1.58;;;19.10;99.90;;;;;;5166783;27;20461;-44
2023/10/03 08:45:52;;;;;;;3.67;1.77;;;19.00;99.90;;;;;;5100204;27;20032;-43
2023/10/03 08:48:24;;;;;;;3.23;1.67;;;18.90;99.90;;;;;;5166550;27;20030;-43
2023/10/03 08:50:53;;;;;;;3.58;1.58;;;18.80;99.90;;;;;;5100077;27;20069;-43
2023/10/03 08:53:28;;;;;;;4.43;1.60;;;18.70;99.90;;;;;;5166812;27;20102;-43
2023/10/03 08:55:59;;;;;;;2.80;1.58;;;18.60;99.90;;;;;;5099735;27;20421;-43
2023/10/03 08:58:26;;;;;;;2.47;1.50;;;18.50;99.90;;;;;;5167049;27;20022;-44
2023/10/03 09:01:01;;;;;;;2.42;1.30;;;18.50;99.90;;;;;;5106459;27;20475;-43
2023/10/03 09:03:47;;;;;;;4.05;1.50;;;18.40;99.90;;;;;;5041061;28;20029;-43
2023/10/03 09:06:19;;;;;;;3.13;1.67;;;18.40;99.90;;;;;;5124479;27;20026;-43
2023/10/03 09:09:09;;;;;;;1.70;1.10;;;18.30;99.90;;;;;;5060917;27;20112;-44
2023/10/03 09:11:38;;;;;;;3.13;1.10;;;18.20;99.90;;;;;;5125298;27;20061;-44
2023/10/03 09:14:12;;;;;;;4.72;1.17;;;18.30;99.90;;;;;;5060302;28;20020;-43
2023/10/03 09:16:40;;;;;;;2.20;0.90;;;18.20;99.90;;;;;;5126369;27;20121;-43
2023/10/03 09:19:09;;;;;;;3.13;1.10;;;18.10;99.90;;;;;;5059850;28;20028;-43
2023/10/03 09:21:35;;;;;;;2.70;1.30;;;18.10;99.90;;;;;;5123554;27;20058;-43
2023/10/03 09:24:09;;;;;;;2.92;0.90;;;18.10;99.90;;;;;;5062915;27;20024;-43
2023/10/03 09:27:07;;;;;;;2.25;1.02;;;18.20;99.90;;;;;;5114525;27;20017;-43
2023/10/03 09:29:33;;;;;;;1.60;0.95;;;18.30;99.90;;;;;;5041632;28;20454;-43
2023/10/03 09:32:17;;;;;;;1.35;0.70;;;18.30;99.90;;;;;;5120758;27;20050;-43
2023/10/03 09:34:46;;;;;;;2.22;0.98;;;18.30;99.90;;;;;;5041108;28;20049;-43
2023/10/03 09:37:17;;;;;;;2.08;0.82;;;18.30;99.90;;;;;;5123403;27;20014;-43
2023/10/03 09:39:59;;;;;;;3.22;1.45;;;18.30;99.90;;;;;;5040174;28;20040;-43
2023/10/03 09:42:25;;;;;;;2.13;0.90;;;18.40;99.90;;;;;;5124121;27;20105;-42
2023/10/03 09:44:51;;;;;;;2.60;1.08;;;18.50;99.90;;;;;;5061128;27;20107;-44
2023/10/03 09:47:18;;;;;;;4.65;1.20;;;18.50;99.90;;;;;;5114888;27;20509;-43
2023/10/03 09:49:47;;;;;;;1.83;0.82;;;18.60;99.90;;;;;;5071150;27;20063;-44
2023/10/03 09:52:26;;;;;;;3.00;1.00;;;18.70;99.90;;;;;;5104122;27;20022;-42
2023/10/03 09:54:53;;;;;;;2.55;0.82;;;18.70;99.90;;;;;;5072132;27;20123;-44
2023/10/03 09:57:21;;;;;;;2.03;0.73;;;18.70;99.90;;;;;;5101516;27;20033;-43
2023/10/03 09:59:48;;;;;;;2.40;0.75;;;18.70;99.90;;;;;;5083208;27;20067;-44
2023/10/03 10:02:30;;;;;;;2.47;0.80;;;18.60;99.90;;;;;;5090687;27;20048;-44
2023/10/03 10:05:00;;;;;;;1.77;0.70;;;18.60;99.90;;;;;;5085227;27;20052;-44
2023/10/03 10:08:09;;;;;;;2.13;0.90;;;18.50;99.90;;;;;;5091488;27;20026;-43
2023/10/03 10:10:36;;;;;;;2.45;0.90;;;18.30;99.90;;;;;;5067585;28;20091;-42
2023/10/03 10:13:22;;;;;;;2.10;0.70;;;18.30;99.90;;;;;;5109867;27;20011;-43
2023/10/03 10:16:07;;;;;;;1.30;0.80;;;18.20;99.90;;;;;;5060247;27;20044;-43
2023/10/03 10:18:45;;;;;;;2.05;0.90;;;18.20;99.90;;;;;;5125601;27;20835;-43
2023/10/03 10:21:20;;;;;;;2.20;0.90;;;18.20;99.90;;;;;;5039957;28;20025;-43
2023/10/03 10:24:20;;;;;;;1.77;1.00;;;18.10;99.90;;;;;;5123823;27;20027;-43
2023/10/03 10:26:52;;;;;;;2.72;0.90;;;18.10;99.90;;;;;;5061039;28;20033;-45
2023/10/03 10:29:28;;;;;;;2.13;0.82;;;18.00;99.90;;;;;;5125796;27;20050;-44
2023/10/03 10:31:58;;;;;;;2.38;1.00;;;17.90;99.90;;;;;;5137655;27;20070;-43
2023/10/03 10:34:27;;;;;;;1.58;0.90;;;17.90;99.90;;;;;;5099230;27;20045;-43
2023/10/03 10:37:04;;;;;;;2.63;1.40;;;17.90;99.90;;;;;;5169072;27;20018;-43
2023/10/03 10:39:56;;;;;;;3.58;0.90;;;17.90;99.90;;;;;;5103336;27;20012;-43
2023/10/03 10:42:25;;;;;;;1.25;0.70;;;18.00;99.90;;;;;;5169854;27;20105;-43
2023/10/03 10:45:15;;;;;;;2.03;1.02;;;17.90;99.90;;;;;;5103659;27;20434;-42
2023/10/03 10:47:45;;;;;;;1.45;0.80;;;17.90;99.90;;;;;;5169233;27;20049;-43
2023/10/03 10:50:11;;;;;;;2.50;0.82;;;17.90;99.90;;;;;;5108058;27;20101;-43
2023/10/03 10:52:56;;;;;;;2.55;1.00;;;17.80;99.90;;;;;;5169687;27;20027;-43
2023/10/03 10:55:25;;;;;;;1.75;0.90;;;17.70;99.90;;;;;;5108294;27;20041;-43
2023/10/03 10:58:09;;;;;;;1.20;0.73;;;17.70;99.90;;;;;;5169210;27;20018;-42
2023/10/03 11:00:36;;;;;;;2.45;0.65;;;17.50;99.90;;;;;;5119765;27;20021;-43
2023/10/03 11:03:09;;;;;;;2.00;0.90;;;17.50;99.90;;;;;;5062880;27;20068;-42
2023/10/03 11:05:49;;;;;;;1.92;0.95;;;17.40;99.90;;;;;;5103298;27;20046;-43
2023/10/03 11:08:15;;;;;;;1.15;0.60;;;17.40;99.90;;;;;;5169811;27;20026;-44
2023/10/03 11:10:52;;;;;;;2.60;0.90;;;17.50;99.90;;;;;;5101890;27;20616;-45
2023/10/03 11:13:19;;;;;;;1.52;0.93;;;17.60;99.90;;;;;;5168983;27;20156;-43
2023/10/03 11:15:54;;;;;;;2.85;0.82;;;17.60;99.90;;;;;;5102361;27;20036;-43
2023/10/03 11:18:31;;;;;;;1.55;0.90;;;17.60;99.90;;;;;;5167874;27;20030;-43
2023/10/03 11:20:58;;;;;;;2.90;0.82;;;17.60;99.90;;;;;;5101750;27;20116;-43
2023/10/03 11:23:24;;;;;;;2.65;0.90;;;17.60;99.90;;;;;;5169023;27;20045;-43
2023/10/03 11:25:57;;;;;;;3.83;0.95;;;17.60;99.90;;;;;;5101889;27;20024;-43
2023/10/03 11:28:24;;;;;;;2.17;0.82;;;17.60;99.90;;;;;;5168381;27;20133;-43
2023/10/03 11:31:03;;;;;;;1.58;0.80;;;17.50;99.90;;;;;;5134641;27;20055;-44
2023/10/03 11:33:41;;;;;;;1.52;0.80;;;17.50;99.90;;;;;;5168120;27;20047;-43
2023/10/03 11:36:07;;;;;;;3.60;0.85;;;17.50;99.90;;;;;;5103973;27;20173;-43
2023/10/03 11:38:46;;;;;;;3.13;1.10;;;17.50;99.90;;;;;;5166520;27;20141;-43
2023/10/03 11:41:12;;;;;;;2.78;1.17;;;17.60;99.90;;;;;;5107152;27;20147;-43
2023/10/03 11:43:47;;;;;;;3.92;0.70;;;17.60;99.90;;;;;;5163655;27;20730;-43
2023/10/03 11:46:14;;;;;;;1.67;0.93;;;17.60;99.90;;;;;;5113647;27;20038;-43
2023/10/03 11:48:40;;;;;;;3.20;1.05;;;17.50;99.90;;;;;;5156515;27;20022;-43
2023/10/03 11:51:06;;;;;;;3.22;0.98;;;17.50;99.90;;;;;;5126533;27;20032;-43
2023/10/03 11:53:32;;;;;;;2.60;1.17;;;17.30;99.90;;;;;;5142788;27;20528;-42
2023/10/03 11:55:57;;;;;;;2.28;1.00;;;17.20;99.90;;;;;;5140181;27;20039;-42
2023/10/03 11:58:23;;;;;;;2.92;1.10;;;17.20;99.90;;;;;;5129241;27;20018;-42
2023/10/03 12:00:51;;;;;;;3.85;1.20;;;17.20;99.90;;;;;;5154044;27;20105;-42
2023/10/03 12:03:17;;;;;;;2.33;1.27;;;17.20;99.90;;;;;;5116703;27;20395;-43
2023/10/03 12:05:45;;;;;;;2.72;1.30;;;17.30;99.90;;;;;;5159962;27;20020;-42
2023/10/03 12:08:11;;;;;;;2.75;1.30;;;17.30;99.90;;;;;;5107738;27;20026;-43
2023/10/03 12:10:38;;;;;;;2.13;1.00;;;17.30;99.90;;;;;;5161307;27;20830;-44
2023/10/03 12:13:04;;;;;;;1.65;1.17;;;17.20;99.90;;;;;;5109088;27;20022;-43
2023/10/03 12:15:43;;;;;;;4.57;1.35;;;17.20;99.90;;;;;;5168330;27;20026;-43
2023/10/03 12:18:09;;;;;;;4.50;1.52;;;17.10;99.90;;;;;;5107660;27;20021;-44
2023/10/03 12:20:38;;;;;;;3.70;1.80;;;16.80;99.90;;;;;;5167402;27;20029;-44
2023/10/03 12:23:04;;;;;;;4.97;2.00;;;16.50;99.90;;;;;;5100300;27;20053;-43
2023/10/03 12:25:33;;;;;;;5.30;1.65;;;16.10;99.90;;;;;;5168026;27;20034;-43
2023/10/03 12:27:58;;;;;;;5.90;2.00;;;15.90;99.90;;;;;;5099488;27;20028;-43
2023/10/03 12:30:25;;;;;;;4.13;1.70;;;15.80;99.90;;;;;;5162762;27;20030;-42
2023/10/03 12:32:51;;;;;;;8.38;2.55;;;15.70;99.90;;;;;;5118841;27;20050;-43
2023/10/03 12:35:17;;;;;;;4.68;1.75;;;15.60;99.90;;;;;;5069540;27;20051;-43
2023/10/03 12:37:48;;;;;;;3.20;1.55;;;15.60;99.90;;;;;;5105311;27;20019;-42
2023/10/03 12:40:25;;;;;;;3.83;1.70;;;15.70;99.90;;;;;;5080345;27;20052;-43
2023/10/03 12:42:51;;;;;;;5.03;2.40;;;15.80;99.90;;;;;;5101665;27;20049;-44
2023/10/03 12:45:20;;;;;;;3.50;2.35;;;15.80;99.90;;;;;;5084976;27;20036;-43
2023/10/03 12:47:52;;;;;;;3.53;2.00;;;15.80;99.90;;;;;;5092090;27;20057;-43
2023/10/03 12:50:26;;;;;;;5.70;1.75;;;15.90;99.90;;;;;;5091230;27;20028;-42
2023/10/03 12:52:57;;;;;;;4.93;2.25;;;15.90;99.90;;;;;;5088785;27;20025;-43
2023/10/03 12:55:25;;;;;;;4.97;2.22;;;15.90;99.90;;;;;;5095808;27;20822;-43
2023/10/03 12:57:51;;;;;;;3.72;2.00;;;16.00;99.90;;;;;;5079378;27;20805;-42
2023/10/03 13:00:21;;;;;;;5.30;2.17;;;16.10;99.90;;;;;;5106760;27;20066;-42